You are not logged in, Click here to log in
尼諾伊·艾奎諾國際機場MNL / RPLL 菲律賓馬尼拉
ICAO: RPLL Country: 菲律賓馬尼拉
Latitude: 14.5123 Longitude: 121.017
Total Arrivals: 113 Total Departures: 115
Latest Arrival: CI701 (RCTP-RPLL)CHU. CHUHAO Latest Departure: CI704 (RPLL-RCTP)CHU. CHUHAO
Scenery:
METAR : RPLL 131000Z 10005KT 070V130 9999 FEW025 30/21 Q1013 NOSIG RMK A2991

尼諾伊·艾奎諾國際機場MNL

You are accessing this site from IP address 100.26.176.182. Virtual Airline. CMS by phpVMS.Website designed by Zumeweb and edited by Theo Bearman.
There is 0 User(s) Online: | and 3 Guest(s) Online.
All information on this site is for fight simulation purposes only. This site is for flight logging for pilots of Virtual Airline&模擬飛行論壇 FlySim only.